Time;durP1;ratioP1;P1;durP2;ratioP2;P2;SDS_P1;SDS_P2;PMS_P1;PMS_P2;Temp;Humidity;BMP_temperature;BMP_pressure;BME280_temperature;BME280_humidity;BME280_pressure;Samples;Min_cycle;Max_cycle;Signal;HPM_P1;HPM_P2
2022/06/11 00:00:03;;;;;;;;;;;20.00;82.00;20.00;100047.00;;;;343027;28;88380;-86
2022/06/11 00:00:15;;;;;;;;;;;20.00;82.40;20.00;100054.00;;;;338616;28;89074;-86
2022/06/11 00:00:27;;;;;;;;;;;20.00;82.40;19.90;100041.00;;;;339978;28;87882;-86
2022/06/11 00:00:39;;;;;;;;;;;20.00;82.50;19.80;100050.00;;;;341960;28;89824;-86
2022/06/11 00:00:51;;;;;;;;;;;19.90;82.60;19.80;100051.00;;;;341682;28;87181;-86
2022/06/11 00:01:02;;;;;;;;;;;19.90;82.80;19.90;100052.00;;;;341997;28;89931;-86
2022/06/11 00:01:20;;;;;;;;;;;19.90;83.10;19.80;100053.00;;;;342985;28;87842;-86
2022/06/11 00:01:38;;;;;;;;;;;19.90;83.10;20.00;100051.00;;;;341875;28;90730;-86
2022/06/11 00:01:55;;;;;;;;;;;19.90;82.60;20.00;100053.00;;;;338976;28;86923;-86
2022/06/11 00:02:08;;;;;;;;;;;19.90;82.30;20.10;100049.00;;;;342078;28;89423;-86
2022/06/11 00:02:20;;;;;;;;;;;19.90;82.00;20.00;100042.00;;;;341707;28;86928;-86
2022/06/11 00:02:32;;;;;;;;;;;19.90;82.60;20.00;100048.00;;;;339081;28;90803;-86
2022/06/11 00:02:43;;;;;;;;;;;19.90;82.20;19.90;100054.00;;;;341757;28;87417;-86
2022/06/11 00:02:57;;;;;;;;;;;19.90;82.50;19.90;100050.00;;;;341963;28;91273;-86
2022/06/11 00:03:09;;;;;;;;;;;19.90;82.90;19.90;100052.00;;;;338999;28;88118;-86
2022/06/11 00:03:22;;;;;;;;;;;19.90;82.80;19.90;100053.00;;;;342017;28;91032;-86
2022/06/11 00:03:33;;;;;;;;;;;19.90;82.70;20.00;100051.00;;;;340512;28;86656;-86
2022/06/11 00:03:46;;;;;;;;;;;19.90;82.20;20.10;100053.00;;;;343266;28;90472;-86
2022/06/11 00:04:02;;;;;;;;;;;19.90;82.40;20.00;100051.00;;;;343140;28;86937;-85
2022/06/11 00:04:26;;;;;;;;;;;19.90;82.40;20.10;100053.00;;;;340619;28;90971;-86
2022/06/11 00:04:39;;;;;;;;;;;19.90;82.40;20.00;100049.00;;;;343165;28;85160;-86
2022/06/11 00:04:51;;;;;;;;;;;19.90;82.50;20.00;100049.00;;;;344671;28;88770;-86
2022/06/11 00:05:03;;;;;;;;;;;19.90;82.80;19.90;100048.00;;;;344487;28;87696;-86
2022/06/11 00:05:15;;;;;;;;;;;19.90;82.80;19.90;100045.00;;;;343164;28;90114;-86
2022/06/11 00:05:27;;;;;;;;;;;19.90;83.00;19.90;100045.00;;;;340338;28;87537;-86
2022/06/11 00:05:38;;;;;;;;;;;19.90;82.90;19.90;100052.00;;;;344712;28;90494;-85
2022/06/11 00:05:50;;;;;;;;;;;19.90;83.00;19.80;100056.00;;;;343069;28;86423;-86
2022/06/11 00:06:03;;;;;;;;;;;19.90;83.10;19.80;100046.00;;;;342037;28;89706;-85
2022/06/11 00:06:15;;;;;;;;;;;19.90;83.30;19.80;100048.00;;;;342150;28;87569;-86
2022/06/11 00:06:26;;;;;;;;;;;19.80;83.60;19.90;100044.00;;;;339287;28;90498;-86
2022/06/11 00:06:41;;;;;;;;;;;19.90;83.20;19.90;100050.00;;;;341683;28;88882;-86
2022/06/11 00:06:57;;;;;;;;;;;19.90;83.20;19.90;100051.00;;;;341978;28;90147;-85
2022/06/11 00:07:12;;;;;;;;;;;19.90;83.10;19.80;100053.00;;;;342956;28;88240;-86
2022/06/11 00:07:24;;;;;;;;;;;19.90;82.90;19.80;100044.00;;;;340441;28;90726;-86
2022/06/11 00:07:36;;;;;;;;;;;19.90;83.30;19.80;100046.00;;;;341782;28;87148;-86
2022/06/11 00:07:49;;;;;;;;;;;19.80;83.60;19.70;100043.00;;;;344600;28;90657;-86
2022/06/11 00:08:01;;;;;;;;;;;19.80;83.50;19.80;100051.00;;;;343137;28;87943;-86
2022/06/11 00:08:13;;;;;;;;;;;19.80;83.80;19.80;100041.00;;;;344653;28;89456;-86
2022/06/11 00:08:25;;;;;;;;;;;19.80;83.60;19.80;100047.00;;;;341720;28;87687;-86
2022/06/11 00:08:38;;;;;;;;;;;19.80;83.60;19.80;100049.00;;;;340599;28;89502;-86
2022/06/11 00:08:51;;;;;;;;;;;19.80;83.60;19.80;100051.00;;;;343072;28;86159;-86
2022/06/11 00:09:03;;;;;;;;;;;19.80;83.70;19.80;100049.00;;;;341990;28;89894;-86
2022/06/11 00:09:16;;;;;;;;;;;19.80;83.60;19.80;100049.00;;;;339402;28;87045;-86
2022/06/11 00:09:28;;;;;;;;;;;19.80;83.70;19.80;100048.00;;;;339295;28;90420;-86
2022/06/11 00:09:39;;;;;;;;;;;19.80;83.40;19.90;100051.00;;;;342835;28;86100;-86
2022/06/11 00:09:51;;;;;;;;;;;19.80;82.80;19.90;100049.00;;;;340245;28;90681;-86
2022/06/11 00:10:04;;;;;;;;;;;19.80;82.90;20.00;100053.00;;;;341594;28;87072;-86
2022/06/11 00:10:16;;;;;;;;;;;19.80;82.80;20.00;100054.00;;;;340580;28;90531;-86
2022/06/11 00:10:28;;;;;;;;;;;19.80;82.90;20.10;100055.00;;;;343126;28;87852;-86
2022/06/11 00:10:40;;;;;;;;;;;19.80;83.10;20.10;100054.00;;;;343300;28;89349;-86
2022/06/11 00:10:51;;;;;;;;;;;19.80;83.00;20.00;100047.00;;;;340460;28;86908;-86
2022/06/11 00:11:03;;;;;;;;;;;19.80;82.60;20.00;100058.00;;;;343162;28;87659;-86
2022/06/11 00:11:15;;;;;;;;;;;19.80;82.50;20.00;100056.00;;;;340295;28;87783;-86
2022/06/11 00:11:27;;;;;;;;;;;19.80;82.50;20.00;100043.00;;;;340607;28;89640;-86
2022/06/11 00:11:40;;;;;;;;;;;19.80;82.50;20.00;100047.00;;;;343112;28;86905;-86
2022/06/11 00:11:52;;;;;;;;;;;19.80;82.30;19.90;100045.00;;;;339047;28;89737;-86
2022/06/11 00:12:04;;;;;;;;;;;19.80;82.80;19.90;100046.00;;;;344467;28;86828;-86
2022/06/11 00:12:16;;;;;;;;;;;19.80;82.70;20.00;100048.00;;;;343203;28;90471;-86
2022/06/11 00:12:27;;;;;;;;;;;19.80;82.60;20.00;100052.00;;;;340284;28;86985;-86
2022/06/11 00:12:39;;;;;;;;;;;19.80;83.30;19.90;100051.00;;;;344738;28;88879;-86
2022/06/11 00:12:51;;;;;;;;;;;19.80;83.10;19.80;100049.00;;;;343031;28;88025;-86
2022/06/11 00:13:03;;;;;;;;;;;19.80;83.50;19.80;100056.00;;;;340662;28;89897;-86
2022/06/11 00:13:15;;;;;;;;;;;19.80;83.90;19.80;100043.00;;;;342798;28;87140;-86
2022/06/11 00:13:27;;;;;;;;;;;19.80;83.50;19.90;100053.00;;;;340448;28;89845;-85
2022/06/11 00:13:39;;;;;;;;;;;19.80;83.00;19.90;100053.00;;;;344243;28;88137;-86
2022/06/11 00:13:51;;;;;;;;;;;19.70;82.90;19.80;100052.00;;;;340420;28;88807;-86
2022/06/11 00:14:03;;;;;;;;;;;19.80;83.40;19.90;100052.00;;;;340352;28;86796;-86
2022/06/11 00:14:15;;;;;;;;;;;19.80;83.40;19.80;100044.00;;;;342051;28;89518;-86
2022/06/11 00:14:28;;;;;;;;;;;19.80;83.30;19.90;100043.00;;;;340306;28;87479;-86
2022/06/11 00:14:40;;;;;;;;;;;19.80;83.40;19.80;100053.00;;;;341878;28;89747;-86
2022/06/11 00:14:52;;;;;;;;;;;19.80;83.40;19.80;100049.00;;;;340405;28;86538;-85
2022/06/11 00:15:04;;;;;;;;;;;19.80;84.10;19.70;100041.00;;;;341938;28;88633;-86
2022/06/11 00:15:16;;;;;;;;;;;19.80;83.80;19.70;100045.00;;;;343910;28;87508;-86
2022/06/11 00:15:28;;;;;;;;;;;19.80;84.10;19.80;100047.00;;;;343305;28;90780;-86
2022/06/11 00:15:40;;;;;;;;;;;19.70;83.60;19.80;100049.00;;;;342824;28;87807;-86
2022/06/11 00:15:52;;;;;;;;;;;19.70;83.30;19.80;100051.00;;;;343312;28;87286;-86
2022/06/11 00:16:04;;;;;;;;;;;19.80;83.30;19.80;100045.00;;;;344513;28;86783;-86
2022/06/11 00:16:17;;;;;;;;;;;19.80;83.70;19.70;100052.00;;;;344661;28;89552;-86
2022/06/11 00:16:29;;;;;;;;;;;19.70;83.70;19.70;100048.00;;;;342983;28;86887;-86
2022/06/11 00:16:41;;;;;;;;;;;19.70;83.80;19.70;100044.00;;;;344786;28;89495;-86
2022/06/11 00:16:53;;;;;;;;;;;19.70;83.90;19.70;100045.00;;;;344269;28;88699;-85
2022/06/11 00:17:06;;;;;;;;;;;19.70;84.10;19.70;100050.00;;;;340581;28;90167;-85
2022/06/11 00:17:19;;;;;;;;;;;19.70;84.10;19.70;100043.00;;;;343065;28;87886;-87
2022/06/11 00:17:31;;;;;;;;;;;19.70;84.50;19.70;100053.00;;;;346160;28;89497;-86
2022/06/11 00:17:43;;;;;;;;;;;19.70;84.10;19.70;100045.00;;;;341464;28;87014;-86
2022/06/11 00:17:56;;;;;;;;;;;19.70;84.00;19.70;100050.00;;;;340537;28;91110;-86
2022/06/11 00:18:08;;;;;;;;;;;19.70;84.10;19.80;100047.00;;;;344321;28;86774;-86
2022/06/11 00:18:20;;;;;;;;;;;19.70;83.50;19.80;100045.00;;;;341829;28;90622;-86
2022/06/11 00:18:32;;;;;;;;;;;19.70;83.50;19.80;100043.00;;;;345788;28;87074;-86
2022/06/11 00:18:44;;;;;;;;;;;19.70;83.80;19.80;100045.00;;;;344599;28;89377;-86
2022/06/11 00:18:56;;;;;;;;;;;19.70;83.80;19.80;100050.00;;;;344404;28;86648;-86
2022/06/11 00:19:08;;;;;;;;;;;19.70;83.90;19.80;100048.00;;;;344527;28;90151;-86
2022/06/11 00:19:20;;;;;;;;;;;19.70;83.30;19.80;100048.00;;;;341381;28;87150;-86
2022/06/11 00:19:32;;;;;;;;;;;19.70;83.30;19.80;100049.00;;;;343215;28;90547;-85
2022/06/11 00:19:44;;;;;;;;;;;19.70;83.30;19.80;100048.00;;;;345769;28;86986;-86
2022/06/11 00:19:56;;;;;;;;;;;19.60;83.10;19.80;100041.00;;;;343041;28;90985;-86
2022/06/11 00:20:08;;;;;;;;;;;19.70;83.60;19.80;100048.00;;;;342836;28;87890;-85
2022/06/11 00:20:20;;;;;;;;;;;19.70;83.30;19.80;100050.00;;;;340687;28;87271;-86
2022/06/11 00:20:32;;;;;;;;;;;19.70;83.60;19.80;100049.00;;;;342797;28;87015;-86
2022/06/11 00:20:43;;;;;;;;;;;19.70;84.10;19.90;100048.00;;;;343268;28;88430;-86
2022/06/11 00:20:55;;;;;;;;;;;19.70;83.80;19.90;100045.00;;;;343008;28;86374;-85
2022/06/11 00:21:08;;;;;;;;;;;19.60;83.80;19.90;100054.00;;;;343145;28;87843;-84
2022/06/11 00:21:20;;;;;;;;;;;19.70;83.50;19.80;100053.00;;;;342509;28;87122;-86
2022/06/11 00:21:34;;;;;;;;;;;19.70;83.60;19.80;100055.00;;;;341004;28;89880;-86
2022/06/11 00:21:46;;;;;;;;;;;19.70;83.20;19.80;100048.00;;;;340282;28;87602;-86
2022/06/11 00:21:57;;;;;;;;;;;19.70;84.00;19.80;100045.00;;;;340535;28;90783;-86
2022/06/11 00:22:09;;;;;;;;;;;19.70;83.70;19.80;100045.00;;;;340338;28;86760;-86
2022/06/11 00:22:21;;;;;;;;;;;19.70;83.30;19.70;100051.00;;;;342679;28;91022;-85
2022/06/11 00:22:33;;;;;;;;;;;19.70;83.70;19.80;100044.00;;;;342873;28;87954;-86
2022/06/11 00:22:44;;;;;;;;;;;19.70;83.50;19.70;100049.00;;;;343308;28;90677;-86
2022/06/11 00:22:56;;;;;;;;;;;19.70;83.50;19.70;100048.00;;;;341761;28;87851;-86
2022/06/11 00:23:08;;;;;;;;;;;19.60;83.60;19.80;100051.00;;;;341950;28;90148;-85
2022/06/11 00:23:20;;;;;;;;;;;19.70;83.30;19.90;100047.00;;;;342822;28;87089;-86
2022/06/11 00:23:32;;;;;;;;;;;19.70;83.70;19.90;100048.00;;;;344631;28;90599;-86
2022/06/11 00:23:46;;;;;;;;;;;19.70;83.70;19.90;100044.00;;;;340377;28;87580;-86
2022/06/11 00:23:58;;;;;;;;;;;19.70;84.00;20.00;100049.00;;;;344522;28;89463;-86
2022/06/11 00:24:10;;;;;;;;;;;19.70;83.90;20.00;100045.00;;;;344245;28;87459;-86
2022/06/11 00:24:23;;;;;;;;;;;19.70;84.00;19.90;100044.00;;;;343316;28;88427;-85
2022/06/11 00:24:36;;;;;;;;;;;19.70;84.20;19.90;100047.00;;;;341590;28;87008;-86
2022/06/11 00:24:48;;;;;;;;;;;19.70;84.30;19.80;100051.00;;;;341914;28;88288;-86
2022/06/11 00:25:00;;;;;;;;;;;19.70;84.50;19.70;100041.00;;;;341749;28;87764;-86
2022/06/11 00:25:11;;;;;;;;;;;19.70;84.60;19.70;100046.00;;;;343199;28;90100;-85
2022/06/11 00:25:23;;;;;;;;;;;19.70;85.00;19.80;100050.00;;;;342978;28;87101;-86
2022/06/11 00:25:35;;;;;;;;;;;19.70;84.50;19.80;100050.00;;;;343327;28;89586;-86
2022/06/11 00:25:47;;;;;;;;;;;19.70;84.30;19.80;100049.00;;;;341609;28;87688;-86
2022/06/11 00:26:01;;;;;;;;;;;19.70;84.20;19.90;100052.00;;;;341895;28;89837;-85
2022/06/11 00:26:12;;;;;;;;;;;19.70;84.00;19.80;100050.00;;;;341614;28;87860;-86
2022/06/11 00:26:24;;;;;;;;;;;19.70;84.00;19.80;100043.00;;;;343217;28;89392;-86
2022/06/11 00:26:36;;;;;;;;;;;19.70;84.90;19.70;100045.00;;;;344338;28;87629;-86
2022/06/11 00:26:48;;;;;;;;;;;19.70;85.30;19.70;100040.00;;;;343207;28;90567;-86
2022/06/11 00:27:00;;;;;;;;;;;19.60;85.10;19.70;100052.00;;;;343120;28;86677;-86
2022/06/11 00:27:12;;;;;;;;;;;19.60;84.80;19.70;100044.00;;;;343053;28;89931;-86
2022/06/11 00:27:24;;;;;;;;;;;19.60;84.10;19.70;100043.00;;;;343486;28;87175;-86
2022/06/11 00:27:35;;;;;;;;;;;19.60;84.30;19.80;100044.00;;;;340408;28;89504;-86
2022/06/11 00:27:47;;;;;;;;;;;19.60;84.00;19.90;100051.00;;;;341530;28;87762;-86
2022/06/11 00:27:59;;;;;;;;;;;19.60;84.20;20.00;100050.00;;;;341891;28;90678;-86
2022/06/11 00:28:11;;;;;;;;;;;19.60;84.40;20.00;100049.00;;;;340323;28;87542;-86
2022/06/11 00:28:23;;;;;;;;;;;19.60;84.50;19.80;100039.00;;;;341482;28;90398;-85
2022/06/11 00:28:34;;;;;;;;;;;19.70;84.80;19.90;100042.00;;;;340242;28;87579;-86
2022/06/11 00:28:46;;;;;;;;;;;19.70;84.70;19.80;100040.00;;;;344522;28;89767;-86
2022/06/11 00:28:58;;;;;;;;;;;19.70;84.90;19.60;100042.00;;;;342970;28;86683;-86
2022/06/11 00:29:11;;;;;;;;;;;19.60;84.80;19.60;100043.00;;;;340485;28;89278;-86
2022/06/11 00:29:24;;;;;;;;;;;19.70;85.20;19.70;100036.00;;;;344206;28;87789;-86
2022/06/11 00:29:36;;;;;;;;;;;19.60;85.10;19.70;100037.00;;;;344611;28;90536;-86
2022/06/11 00:29:48;;;;;;;;;;;19.60;84.70;19.70;100037.00;;;;341632;28;86868;-86
2022/06/11 00:30:00;;;;;;;;;;;19.60;84.10;19.80;100040.00;;;;344609;28;90350;-85
2022/06/11 00:30:11;;;;;;;;;;;19.60;84.10;19.90;100040.00;;;;342705;28;87710;-84
2022/06/11 00:30:23;;;;;;;;;;;19.60;84.20;20.00;100042.00;;;;337638;28;89478;-86
2022/06/11 00:30:35;;;;;;;;;;;19.60;84.70;19.80;100033.00;;;;341192;28;88072;-86
2022/06/11 00:30:47;;;;;;;;;;;19.60;84.90;19.70;100039.00;;;;344699;28;89580;-86
2022/06/11 00:30:59;;;;;;;;;;;19.60;85.20;19.60;100042.00;;;;340154;28;87195;-85
2022/06/11 00:31:11;;;;;;;;;;;19.60;85.50;19.60;100044.00;;;;340474;28;89850;-86
2022/06/11 00:31:23;;;;;;;;;;;19.60;85.80;19.60;100044.00;;;;341314;28;87039;-85
2022/06/11 00:31:35;;;;;;;;;;;19.60;85.60;19.60;100040.00;;;;343198;28;89650;-85
2022/06/11 00:31:47;;;;;;;;;;;19.60;85.30;19.60;100040.00;;;;343103;28;86861;-86
2022/06/11 00:31:59;;;;;;;;;;;19.60;85.20;19.70;100040.00;;;;343209;28;89626;-85
2022/06/11 00:32:12;;;;;;;;;;;19.60;85.00;19.70;100030.00;;;;342698;28;87252;-85
2022/06/11 00:32:24;;;;;;;;;;;19.60;85.30;19.70;100039.00;;;;343271;28;89590;-86
2022/06/11 00:32:36;;;;;;;;;;;19.60;85.00;19.70;100048.00;;;;340236;28;88027;-86
2022/06/11 00:32:48;;;;;;;;;;;19.60;85.40;19.60;100037.00;;;;341911;28;90623;-86
2022/06/11 00:32:59;;;;;;;;;;;19.60;85.00;19.70;100038.00;;;;344509;28;86371;-86
2022/06/11 00:33:11;;;;;;;;;;;19.60;84.80;19.70;100036.00;;;;344098;28;90371;-86
2022/06/11 00:33:23;;;;;;;;;;;19.60;84.60;19.60;100038.00;;;;342946;28;87216;-86
2022/06/11 00:33:36;;;;;;;;;;;19.60;85.20;19.60;100037.00;;;;344588;28;90699;-86
2022/06/11 00:33:48;;;;;;;;;;;19.50;85.40;19.60;100039.00;;;;340234;28;87533;-85
2022/06/11 00:34:00;;;;;;;;;;;19.50;85.20;19.60;100042.00;;;;344556;28;90813;-86
2022/06/11 00:34:12;;;;;;;;;;;19.50;85.00;19.60;100038.00;;;;344332;28;87899;-86
2022/06/11 00:34:24;;;;;;;;;;;19.50;84.40;19.70;100036.00;;;;343218;28;92525;-86
2022/06/11 00:34:36;;;;;;;;;;;19.50;84.70;19.80;100032.00;;;;344385;28;87313;-86
2022/06/11 00:34:49;;;;;;;;;;;19.50;84.80;19.80;100037.00;;;;344582;28;89416;-86
2022/06/11 00:35:03;;;;;;;;;;;19.50;84.90;19.60;100030.00;;;;341538;28;87170;-86
2022/06/11 00:35:15;;;;;;;;;;;19.50;85.10;19.70;100036.00;;;;344524;28;89842;-85
2022/06/11 00:35:29;;;;;;;;;;;19.50;85.30;19.60;100040.00;;;;344231;28;87839;-86
2022/06/11 00:35:41;;;;;;;;;;;19.50;85.90;19.60;100036.00;;;;343258;28;91043;-86
2022/06/11 00:35:53;;;;;;;;;;;19.50;85.60;19.60;100036.00;;;;343015;28;86350;-86
2022/06/11 00:36:05;;;;;;;;;;;19.50;85.60;19.60;100038.00;;;;341959;28;89426;-86
2022/06/11 00:36:18;;;;;;;;;;;19.50;85.90;19.60;100044.00;;;;341550;28;87124;-86
2022/06/11 00:36:30;;;;;;;;;;;19.50;85.70;19.60;100044.00;;;;342936;28;91030;-86
2022/06/11 00:36:43;;;;;;;;;;;19.50;86.00;19.50;100045.00;;;;341734;28;86819;-86
2022/06/11 00:36:55;;;;;;;;;;;19.50;85.50;19.60;100033.00;;;;341877;28;90264;-86
2022/06/11 00:37:07;;;;;;;;;;;19.50;85.00;19.60;100042.00;;;;343047;28;87910;-86
2022/06/11 00:37:20;;;;;;;;;;;19.50;84.90;19.80;100035.00;;;;341862;28;89089;-86
2022/06/11 00:37:32;;;;;;;;;;;19.50;85.80;19.80;100037.00;;;;341522;28;87015;-85
2022/06/11 00:37:44;;;;;;;;;;;19.50;85.30;19.80;100040.00;;;;341664;28;89923;-86
2022/06/11 00:37:55;;;;;;;;;;;19.50;85.50;19.80;100032.00;;;;338851;28;87144;-86
2022/06/11 00:38:07;;;;;;;;;;;19.50;85.10;19.80;100041.00;;;;340516;28;89457;-86
2022/06/11 00:38:19;;;;;;;;;;;19.50;85.10;19.70;100034.00;;;;343211;28;88368;-86
2022/06/11 00:38:31;;;;;;;;;;;19.50;85.60;19.60;100042.00;;;;347309;28;90989;-86
2022/06/11 00:38:43;;;;;;;;;;;19.50;85.90;19.40;100035.00;;;;345613;28;86928;-86
2022/06/11 00:38:56;;;;;;;;;;;19.50;86.10;19.40;100039.00;;;;344574;28;90731;-86
2022/06/11 00:39:08;;;;;;;;;;;19.40;86.00;19.30;100035.00;;;;345881;28;85624;-86
2022/06/11 00:39:21;;;;;;;;;;;19.40;85.90;19.40;100041.00;;;;346882;28;89634;-86
2022/06/11 00:39:34;;;;;;;;;;;19.40;86.20;19.50;100040.00;;;;347201;28;88175;-85
2022/06/11 00:39:46;;;;;;;;;;;19.40;85.70;19.60;100040.00;;;;347270;28;90670;-85
2022/06/11 00:39:58;;;;;;;;;;;19.40;85.90;19.60;100036.00;;;;345500;28;86243;-86
2022/06/11 00:40:11;;;;;;;;;;;19.40;85.20;19.60;100043.00;;;;346131;28;89634;-86
2022/06/11 00:40:24;;;;;;;;;;;19.40;85.30;19.50;100040.00;;;;349873;27;87036;-85
2022/06/11 00:40:37;;;;;;;;;;;19.40;85.50;19.60;100039.00;;;;348794;27;90672;-86
2022/06/11 00:40:50;;;;;;;;;;;19.40;85.30;19.60;100040.00;;;;347040;28;87050;-85
2022/06/11 00:41:02;;;;;;;;;;;19.40;85.40;19.60;100042.00;;;;350047;27;89845;-86
2022/06/11 00:41:15;;;;;;;;;;;19.40;85.10;19.60;100039.00;;;;346900;28;88113;-86
2022/06/11 00:41:28;;;;;;;;;;;19.40;84.90;19.60;100039.00;;;;348765;27;88059;-86
2022/06/11 00:41:41;;;;;;;;;;;19.40;85.20;19.70;100040.00;;;;348600;27;86643;-86
2022/06/11 00:41:55;;;;;;;;;;;19.40;84.90;19.80;100037.00;;;;345857;27;89925;-86
2022/06/11 00:42:11;;;;;;;;;;;19.40;85.20;19.70;100037.00;;;;348293;27;86968;-86
2022/06/11 00:42:25;;;;;;;;;;;19.40;85.50;19.70;100042.00;;;;346015;28;90891;-86
2022/06/11 00:42:36;;;;;;;;;;;19.40;85.30;19.70;100032.00;;;;342998;28;87014;-86
2022/06/11 00:42:48;;;;;;;;;;;19.40;85.30;19.60;100046.00;;;;344518;28;88933;-85
2022/06/11 00:43:00;;;;;;;;;;;19.40;85.40;19.60;100043.00;;;;348457;27;86943;-85
2022/06/11 00:43:14;;;;;;;;;;;19.40;85.40;19.50;100045.00;;;;345843;28;90504;-85
2022/06/11 00:43:26;;;;;;;;;;;19.40;85.90;19.50;100042.00;;;;347214;28;86708;-85
2022/06/11 00:43:39;;;;;;;;;;;19.40;86.20;19.40;100035.00;;;;348661;27;89865;-86
2022/06/11 00:43:53;;;;;;;;;;;19.40;86.40;19.40;100038.00;;;;345837;28;87736;-86
2022/06/11 00:44:04;;;;;;;;;;;19.40;86.40;19.30;100043.00;;;;346109;28;89375;-86
2022/06/11 00:44:16;;;;;;;;;;;19.40;86.60;19.30;100039.00;;;;347038;28;87121;-86
2022/06/11 00:44:28;;;;;;;;;;;19.30;86.50;19.30;100041.00;;;;347415;28;89176;-86
2022/06/11 00:44:40;;;;;;;;;;;19.30;86.60;19.30;100043.00;;;;344373;28;87726;-86
2022/06/11 00:45:15;;;;;;;;;;;19.30;86.70;19.30;100043.00;;;;345990;28;91285;-86
2022/06/11 00:46:01;;;;;;;;;;;19.30;86.80;19.20;100043.00;;;;345703;28;87805;-86
2022/06/11 00:46:35;;;;;;;;;;;19.30;86.80;19.50;100052.00;;;;344399;28;90546;-85
2022/06/11 00:46:53;;;;;;;;;;;19.30;86.30;19.40;100048.00;;;;344693;28;87940;-86
2022/06/11 00:47:19;;;;;;;;;;;19.30;86.30;19.40;100054.00;;;;346027;28;90074;-86
2022/06/11 00:47:30;;;;;;;;;;;19.30;86.70;19.40;100044.00;;;;347143;28;88075;-86
2022/06/11 00:47:44;;;;;;;;;;;19.30;86.70;19.50;100044.00;;;;347336;28;90878;-86
2022/06/11 00:48:06;;;;;;;;;;;19.30;85.70;19.40;100041.00;;;;344369;28;86908;-85
2022/06/11 00:48:35;;;;;;;;;;;19.30;85.50;19.40;100044.00;;;;346909;28;89537;-86
2022/06/11 00:48:46;;;;;;;;;;;19.30;85.60;19.40;100041.00;;;;348582;27;87825;-86
2022/06/11 00:48:58;;;;;;;;;;;19.30;86.20;19.40;100039.00;;;;348787;27;90384;-86
2022/06/11 00:49:31;;;;;;;;;;;19.20;86.30;19.40;100043.00;;;;347092;28;87817;-85
2022/06/11 00:49:58;;;;;;;;;;;19.20;86.30;19.30;100045.00;;;;347293;28;89341;-85
2022/06/11 00:50:23;;;;;;;;;;;19.30;86.60;19.30;100038.00;;;;347205;28;88095;-85
2022/06/11 00:50:41;;;;;;;;;;;19.20;86.60;19.30;100042.00;;;;344565;28;89015;-85
2022/06/11 00:50:59;;;;;;;;;;;19.20;87.00;19.40;100044.00;;;;345896;28;88100;-86
2022/06/11 00:51:13;;;;;;;;;;;19.30;86.90;19.40;100038.00;;;;347424;28;89496;-85
2022/06/11 00:51:24;;;;;;;;;;;19.30;86.70;19.50;100047.00;;;;345831;28;86896;-85
2022/06/11 00:51:36;;;;;;;;;;;19.30;86.50;19.50;100048.00;;;;346046;28;90729;-86
2022/06/11 00:51:48;;;;;;;;;;;19.20;86.40;19.50;100037.00;;;;345426;28;87099;-86
2022/06/11 00:52:06;;;;;;;;;;;19.20;86.00;19.50;100044.00;;;;344613;28;90809;-85
2022/06/11 00:52:33;;;;;;;;;;;19.20;86.30;19.60;100041.00;;;;346053;28;86952;-85
2022/06/11 00:52:44;;;;;;;;;;;19.20;86.60;19.40;100043.00;;;;346103;28;89641;-86
2022/06/11 00:52:57;;;;;;;;;;;19.30;87.10;19.40;100038.00;;;;345850;28;87871;-86
2022/06/11 00:53:34;;;;;;;;;;;19.20;87.10;19.40;100041.00;;;;347324;27;89140;-86
2022/06/11 00:53:49;;;;;;;;;;;19.20;87.10;19.30;100048.00;;;;342925;28;87752;-86
2022/06/11 00:54:03;;;;;;;;;;;19.30;87.60;19.40;100042.00;;;;343196;28;90725;-86
2022/06/11 00:54:17;;;;;;;;;;;19.20;87.40;19.40;100046.00;;;;344149;28;87052;-86
2022/06/11 00:54:30;;;;;;;;;;;19.30;87.00;19.30;100042.00;;;;343000;28;89745;-86
2022/06/11 00:54:43;;;;;;;;;;;19.30;87.20;19.20;100039.00;;;;342641;28;86981;-85
2022/06/11 00:55:04;;;;;;;;;;;19.20;87.70;19.40;100039.00;;;;341944;28;90611;-86
2022/06/11 00:55:34;;;;;;;;;;;19.20;87.60;19.20;100041.00;;;;340303;28;87742;-86
2022/06/11 00:55:45;;;;;;;;;;;19.30;87.60;19.10;100042.00;;;;341639;28;90821;-86
2022/06/11 00:55:57;;;;;;;;;;;19.20;88.50;19.10;100043.00;;;;342814;28;86679;-86
2022/06/11 00:56:18;;;;;;;;;;;19.20;88.70;19.30;100039.00;;;;340539;28;90122;-86
2022/06/11 00:56:32;;;;;;;;;;;19.20;89.00;19.30;100038.00;;;;340173;28;87121;-86
2022/06/11 00:56:48;;;;;;;;;;;19.20;88.30;19.10;100048.00;;;;341950;28;90492;-86
2022/06/11 00:56:59;;;;;;;;;;;19.20;88.90;19.10;100045.00;;;;342988;28;87901;-86
2022/06/11 00:57:11;;;;;;;;;;;19.10;88.80;19.10;100044.00;;;;342953;28;89393;-85
2022/06/11 00:57:24;;;;;;;;;;;19.20;88.70;19.10;100041.00;;;;341698;28;87007;-85
2022/06/11 00:57:43;;;;;;;;;;;19.20;88.60;19.20;100045.00;;;;341925;28;91008;-86
2022/06/11 00:58:02;;;;;;;;;;;19.20;88.50;19.30;100039.00;;;;341510;28;87757;-86
2022/06/11 00:58:23;;;;;;;;;;;19.10;87.40;19.40;100035.00;;;;340573;28;90777;-86
2022/06/11 00:58:37;;;;;;;;;;;19.20;87.80;19.30;100042.00;;;;344096;28;87507;-86
2022/06/11 00:58:53;;;;;;;;;;;19.20;88.20;19.20;100040.00;;;;341962;28;88763;-86
2022/06/11 00:59:09;;;;;;;;;;;19.20;88.90;19.20;100044.00;;;;340258;28;86897;-86
2022/06/11 00:59:34;;;;;;;;;;;19.10;88.90;19.20;100043.00;;;;340531;28;90751;-86
2022/06/11 00:59:49;;;;;;;;;;;19.10;88.90;19.10;100048.00;;;;342916;28;86831;-86
2022/06/11 01:00:07;;;;;;;;;;;19.10;88.70;19.10;100045.00;;;;341856;28;89548;-86
2022/06/11 01:00:27;;;;;;;;;;;19.10;88.50;19.20;100040.00;;;;342334;28;87025;-86
2022/06/11 01:00:44;;;;;;;;;;;19.10;88.30;19.10;100041.00;;;;340564;28;90733;-85
2022/06/11 01:00:58;;;;;;;;;;;19.10;88.40;19.20;100044.00;;;;342993;28;88278;-86
2022/06/11 01:01:09;;;;;;;;;;;19.10;87.90;19.20;100035.00;;;;343245;28;88032;-86
2022/06/11 01:01:22;;;;;;;;;;;19.10;88.10;19.10;100043.00;;;;341417;28;87133;-86
2022/06/11 01:01:34;;;;;;;;;;;19.10;88.30;19.10;100041.00;;;;345810;28;89097;-86
2022/06/11 01:01:47;;;;;;;;;;;19.10;89.20;19.10;100046.00;;;;343032;28;86891;-86
2022/06/11 01:01:59;;;;;;;;;;;19.10;89.10;19.00;100042.00;;;;344699;28;89796;-85
2022/06/11 01:02:11;;;;;;;;;;;19.10;89.10;19.00;100045.00;;;;342990;28;87765;-86
2022/06/11 01:02:22;;;;;;;;;;;19.00;89.20;19.00;100041.00;;;;343089;28;91344;-85
2022/06/11 01:02:34;;;;;;;;;;;19.00;89.40;19.10;100046.00;;;;343931;28;87623;-85
2022/06/11 01:02:47;;;;;;;;;;;19.00;89.10;19.10;100048.00;;;;340612;28;89700;-86
2022/06/11 01:02:59;;;;;;;;;;;19.00;89.00;19.00;100045.00;;;;341705;28;87935;-86
2022/06/11 01:03:13;;;;;;;;;;;19.00;89.20;19.00;100042.00;;;;343004;28;88708;-86
2022/06/11 01:03:31;;;;;;;;;;;19.00;89.20;19.00;100045.00;;;;341668;28;88061;-86
2022/06/11 01:03:44;;;;;;;;;;;19.00;89.30;19.00;100053.00;;;;343250;28;90089;-86
2022/06/11 01:03:58;;;;;;;;;;;19.00;89.00;19.00;100045.00;;;;343004;28;88179;-86
2022/06/11 01:04:47;;;;;;;;;;;19.00;89.70;19.00;100045.00;;;;341908;28;89824;-86
2022/06/11 01:05:01;;;;;;;;;;;19.00;89.60;19.10;100047.00;;;;341711;28;86921;-86
2022/06/11 01:05:14;;;;;;;;;;;19.00;88.50;19.10;100046.00;;;;341861;28;90755;-86
2022/06/11 01:05:29;;;;;;;;;;;19.00;88.60;19.10;100043.00;;;;341462;28;86978;-86
2022/06/11 01:05:43;;;;;;;;;;;19.00;89.70;19.10;100051.00;;;;344625;28;89435;-86
2022/06/11 01:06:33;;;;;;;;;;;19.00;89.40;19.20;100046.00;;;;345690;28;87322;-86
2022/06/11 01:06:53;;;;;;;;;;;19.00;88.80;19.40;100045.00;;;;342685;28;89713;-85
2022/06/11 01:07:18;;;;;;;;;;;19.00;88.80;19.30;100042.00;;;;340295;28;87641;-86
2022/06/11 01:07:40;;;;;;;;;;;19.00;88.80;19.10;100037.00;;;;339227;28;90238;-86
2022/06/11 01:08:11;;;;;;;;;;;19.00;88.60;19.00;100051.00;;;;341525;28;87027;-86